Information Last Ob Photographs Calibration Meteogram Network Table Neighbors Monthly Summaries Observation History Wind Roses Custom Wind Roses Data Calendar Satellite Cloud Product Download

16 April 2024 Observation History, [AXA] ALGONA, timezone: America/Chicago

Select Date: Time Order:

Show METARs   Show High Frequency MADIS

Previous Day
Time Wind
(mph)
Vis.
(mi.)
Sky Cond.
(100s ft)
Present Wx Temperature (ºF) Relative
Humidity
Pressure Snow
Depth
(in)
Precipitation (in.)
Air Dwpt Feels Like 6 hour altimeter
(in.)
sea level
(mb)
1 hr 3 hr 6 hr
Max.Min.
12:15 AMESE 23G 3110 CLR
643664 34% 29.770
KAXA 160515Z AUTO 11020G27KT 10SM CLR 18/02 A2977 RMK A01
12:35 AMESE 22G 2810 CLR
643464 32% 29.770
KAXA 160535Z AUTO 12019G24KT 10SM CLR 18/01 A2977 RMK A01
12:55 AMESE 20G 2810 BKN050
643664 34% 29.770
KAXA 160555Z AUTO 11017G24KT 10SM BKN050 18/02 A2977 RMK A01
1:15 AMESE 21G 3110 SCT050
633663 36% 29.760
KAXA 160615Z AUTO 12018G27KT 10SM SCT050 17/02 A2976 RMK A01
1:35 AMESE 20G 2610 BKN050
633663 36% 29.740
KAXA 160635Z AUTO 12017G23KT 10SM BKN050 17/02 A2974 RMK A01
1:55 AMESE 22G 2810 FEW050
FEW060
633663 36% 29.730
KAXA 160655Z AUTO 12019G24KT 10SM FEW050 FEW060 17/02 A2973 RMK A01
2:15 AMESE 22G 3010 BKN060
BKN070
BKN075
643664 34% 29.720
KAXA 160715Z AUTO 12019G26KT 10SM BKN060 BKN070 BKN075 18/02 A2972 RMK A01
2:35 AMESE 22G 3210 BKN055
BKN065
OVC080
643664 34% 29.70
KAXA 160735Z AUTO 12019G28KT 10SM BKN055 BKN065 OVC080 18/02 A2970 RMK A01
2:55 AMESE 20G 3410 BKN055
BKN065
BKN075
643664 34% 29.690
KAXA 160755Z AUTO 11017G30KT 10SM BKN055 BKN065 BKN075 18/02 A2969 RMK A01
3:15 AMSSE 17G 3710 FEW038
BKN055
OVC090
633763 39% 29.720
KAXA 160815Z AUTO 15015G32KT 10SM FEW038 BKN055 OVC090 17/03 A2972 RMK A01
3:35 AMESE 15G 2510 FEW026
FEW039
OVC050
594159 51% 29.70
KAXA 160835Z AUTO 12013G22KT 10SM FEW026 FEW039 OVC050 15/05 A2970 RMK A01
3:55 AMSE 26G 3710 BKN050
BKN065
OVC100
614161 48% 29.70.08
KAXA 160855Z AUTO 13023G32KT 10SM BKN050 BKN065 OVC100 16/05 A2970 RMK A01 P0008
4:15 AMSE 22G 3210 FEW047
SCT070
BKN080
594359 55% 29.690
KAXA 160915Z AUTO 13019G28KT 10SM FEW047 SCT070 BKN080 15/06 A2969 RMK A01
4:35 AMESE 21G 329 FEW055
SCT065
BKN075
574657 67% 29.680
KAXA 160935Z AUTO 12018G28KT 9SM FEW055 SCT065 BKN075 14/08 A2968 RMK A01
4:55 AMESE 20G 3110 FEW075
FEW085
OVC100
574557 63% 29.680
KAXA 160955Z AUTO 12017G27KT 10SM FEW075 FEW085 OVC100 14/07 A2968 RMK A01
5:15 AMSE 18G 3210 FEW080
OVC100
574657 67% 29.680
KAXA 161015Z AUTO 13016G28KT 10SM FEW080 OVC100 14/08 A2968 RMK A01
5:35 AMESE 22G 3410 FEW037
SCT075
OVC095
574657 67% 29.660
KAXA 161035Z AUTO 12019G30KT 10SM FEW037 SCT075 OVC095 14/08 A2966 RMK A01
5:55 AMESE 21G 3110 FEW044
SCT065
BKN095
554855 77% 29.640
KAXA 161055Z AUTO 12018G27KT 10SM FEW044 SCT065 BKN095 13/09 A2964 RMK A01
6:15 AMESE 26G 3710 FEW043
FEW065
OVC090
574557 63% 29.640
KAXA 161115Z AUTO 11023G32KT 10SM FEW043 FEW065 OVC090 14/07 A2964 RMK A01
6:35 AMESE 24G 369 FEW035
FEW045
OVC085
554655 72% 29.650
KAXA 161135Z AUTO 11021G31KT 9SM FEW035 FEW045 OVC085 13/08 A2965 RMK A01
6:55 AMESE 23G 387 OVC085
544654 77% 29.650.01
KAXA 161155Z AUTO 12020G33KT 7SM OVC085 12/08 A2965 RMK A01 P0001
7:15 AMESE 26G 346 FEW045
BKN060
OVC080
HZ544654 77% 29.660
KAXA 161215Z AUTO 12023G30KT 6SM HZ FEW045 BKN060 OVC080 12/08 A2966 RMK A01
7:35 AMESE 21G 324 SCT029
BKN045
OVC080
HZ524652 82% 29.650
KAXA 161235Z AUTO 11018G28KT 4SM HZ SCT029 BKN045 OVC080 11/08 A2965 RMK A01

The IEM API webservice that provided data to this page. For more details, see documentation.

Data Notes

  • For recent years, this page also optionally shows observations from the MADIS High Frequency METAR dataset. This dataset had a problem with temperatures detailed here.